Time;durP1;ratioP1;P1;durP2;ratioP2;P2;SDS_P1;SDS_P2;PMS_P1;PMS_P2;Temp;Humidity;BMP_temperature;BMP_pressure;BME280_temperature;BME280_humidity;BME280_pressure;Samples;Min_cycle;Max_cycle;Signal;HPM_P1;HPM_P2
2022/07/03 00:01:28;;;;;;;2.40;2.17;;;18.60;93.10;;;;;;5095414;28;20415;-42
2022/07/03 00:03:53;;;;;;;2.77;2.57;;;18.60;93.10;;;;;;5096817;28;20520;-44
2022/07/03 00:06:20;;;;;;;3.33;3.03;;;18.60;93.10;;;;;;5095913;28;20311;-44
2022/07/03 00:08:46;;;;;;;2.70;1.90;;;18.60;93.20;;;;;;5096326;28;20183;-45
2022/07/03 00:11:12;;;;;;;3.17;2.50;;;18.60;93.20;;;;;;5096470;28;20470;-43
2022/07/03 00:13:38;;;;;;;6.33;2.80;;;18.60;93.30;;;;;;5096430;28;20258;-44
2022/07/03 00:16:04;;;;;;;2.77;2.57;;;18.60;93.30;;;;;;5096051;28;20457;-46
2022/07/03 00:18:30;;;;;;;3.10;2.17;;;18.70;93.30;;;;;;5095650;28;20193;-43
2022/07/03 00:21:08;;;;;;;2.37;2.17;;;18.70;93.20;;;;;;5096341;28;20173;-42
2022/07/03 00:23:54;;;;;;;2.43;2.23;;;18.60;93.30;;;;;;5097206;28;20446;-43
2022/07/03 00:26:21;;;;;;;2.40;2.20;;;18.60;93.30;;;;;;5096437;28;20420;-43
2022/07/03 00:28:47;;;;;;;3.37;1.93;;;18.50;93.30;;;;;;5095902;28;20416;-46
2022/07/03 00:31:13;;;;;;;2.10;1.90;;;18.50;93.50;;;;;;5093996;28;20470;-44
2022/07/03 00:33:41;;;;;;;2.60;2.40;;;18.40;93.50;;;;;;5095800;28;20866;-43
2022/07/03 00:36:08;;;;;;;3.10;2.23;;;18.40;93.70;;;;;;5095695;28;20469;-43
2022/07/03 00:38:34;;;;;;;3.60;2.40;;;18.40;93.80;;;;;;5093811;28;21022;-43
2022/07/03 00:41:03;;;;;;;2.90;2.47;;;18.40;93.70;;;;;;5095694;28;20424;-43
2022/07/03 00:43:29;;;;;;;2.33;2.00;;;18.40;93.70;;;;;;5095862;28;20194;-44
2022/07/03 00:46:07;;;;;;;2.90;2.30;;;18.40;93.80;;;;;;5095633;28;20702;-43
2022/07/03 00:48:37;;;;;;;2.30;2.10;;;18.50;93.90;;;;;;5095478;28;20193;-44
2022/07/03 00:51:06;;;;;;;2.47;2.27;;;18.40;93.90;;;;;;5095566;28;20469;-44
2022/07/03 00:53:33;;;;;;;2.50;2.30;;;18.40;94.00;;;;;;5096675;28;20466;-45
2022/07/03 00:56:00;;;;;;;2.43;2.17;;;18.40;94.10;;;;;;5094877;28;20470;-45
2022/07/03 00:58:26;;;;;;;3.20;2.17;;;18.40;94.20;;;;;;5096466;28;20782;-46
2022/07/03 01:00:53;;;;;;;2.10;1.90;;;18.40;94.20;;;;;;5096022;28;20522;-45
2022/07/03 01:03:21;;;;;;;2.50;2.30;;;18.30;94.30;;;;;;5095341;28;20426;-43
2022/07/03 01:05:53;;;;;;;2.90;2.70;;;18.30;94.50;;;;;;5096082;28;20412;-43
2022/07/03 01:08:35;;;;;;;2.30;2.10;;;18.30;94.50;;;;;;5097294;28;20813;-43
2022/07/03 01:11:19;;;;;;;3.00;2.13;;;18.30;94.50;;;;;;5095177;28;20466;-42
2022/07/03 01:13:57;;;;;;;2.27;2.07;;;18.20;94.70;;;;;;5100067;28;20497;-42
2022/07/03 01:16:31;;;;;;;2.90;2.30;;;18.20;94.70;;;;;;5100399;28;20510;-45
2022/07/03 01:19:32;;;;;;;4.50;3.23;;;18.20;94.80;;;;;;5101061;28;20760;-43
2022/07/03 01:22:09;;;;;;;2.40;2.20;;;18.10;94.80;;;;;;5096238;28;20458;-43
2022/07/03 01:24:44;;;;;;;3.43;3.13;;;18.10;95.00;;;;;;5099482;28;20891;-43
2022/07/03 01:27:32;;;;;;;2.83;2.63;;;18.20;95.00;;;;;;5099504;28;20419;-42
2022/07/03 01:30:07;;;;;;;3.20;2.50;;;18.20;95.00;;;;;;5098504;28;20427;-44
2022/07/03 01:32:38;;;;;;;2.80;2.60;;;18.10;95.10;;;;;;5099305;28;20488;-43
2022/07/03 01:35:05;;;;;;;2.63;2.43;;;18.10;95.30;;;;;;5099028;28;20472;-45
2022/07/03 01:37:34;;;;;;;2.97;2.03;;;18.00;95.30;;;;;;5099323;28;20727;-46
2022/07/03 01:40:03;;;;;;;3.80;2.67;;;18.00;95.50;;;;;;5099508;28;20415;-45
2022/07/03 01:42:29;;;;;;;3.30;2.77;;;18.00;95.60;;;;;;5098518;28;20534;-42
2022/07/03 01:44:56;;;;;;;2.43;2.23;;;18.00;95.70;;;;;;5098830;28;20544;-44
2022/07/03 01:47:24;;;;;;;4.73;2.53;;;17.90;95.80;;;;;;5080967;28;20492;-45
2022/07/03 01:49:50;;;;;;;11.73;2.77;;;17.90;95.90;;;;;;5099369;28;20453;-43
2022/07/03 01:52:16;;;;;;;2.33;2.13;;;17.90;96.00;;;;;;5098385;28;20517;-45
2022/07/03 01:54:43;;;;;;;3.40;2.23;;;17.80;96.10;;;;;;5097978;28;20751;-44
2022/07/03 01:57:09;;;;;;;3.30;3.00;;;17.80;96.00;;;;;;5098061;28;20432;-44
2022/07/03 01:59:35;;;;;;;3.37;2.60;;;17.80;96.10;;;;;;5099363;28;20424;-44
2022/07/03 02:02:09;;;;;;;3.63;2.53;;;17.80;96.30;;;;;;5098313;28;20492;-45
2022/07/03 02:05:00;;;;;;;2.50;2.30;;;17.80;96.30;;;;;;5096470;28;20459;-44
2022/07/03 02:07:44;;;;;;;6.33;2.20;;;17.80;96.50;;;;;;5098422;28;20426;-44
2022/07/03 02:10:10;;;;;;;2.63;2.43;;;17.70;96.50;;;;;;5098252;28;20438;-45
2022/07/03 02:12:49;;;;;;;3.03;2.60;;;17.70;96.60;;;;;;5097515;28;20815;-47
2022/07/03 02:15:18;;;;;;;2.50;2.27;;;17.70;96.60;;;;;;5097405;28;20415;-43
2022/07/03 02:17:48;;;;;;;5.43;2.70;;;17.70;96.60;;;;;;5098331;28;20430;-48
2022/07/03 02:20:16;;;;;;;2.73;2.30;;;17.60;96.70;;;;;;5098928;28;20519;-45
2022/07/03 02:22:43;;;;;;;2.63;2.43;;;17.60;96.70;;;;;;5099164;28;20828;-44
2022/07/03 02:25:16;;;;;;;2.90;2.70;;;17.60;96.80;;;;;;5097373;28;20415;-44
2022/07/03 02:27:57;;;;;;;2.77;2.53;;;17.60;96.80;;;;;;5098121;28;20415;-45
2022/07/03 02:30:24;;;;;;;2.60;2.27;;;17.60;96.80;;;;;;5098364;28;20461;-48
2022/07/03 02:32:52;;;;;;;2.97;2.47;;;17.60;96.90;;;;;;5098158;28;20545;-43
2022/07/03 02:35:22;;;;;;;4.43;2.57;;;17.60;97.00;;;;;;5098978;28;20456;-45
2022/07/03 02:38:10;;;;;;;2.83;2.63;;;17.60;97.00;;;;;;5097784;28;20543;-43
2022/07/03 02:41:01;;;;;;;3.00;2.53;;;17.60;97.20;;;;;;5098428;28;20433;-44
2022/07/03 02:43:29;;;;;;;2.70;2.50;;;17.50;97.20;;;;;;5097463;28;20855;-44
2022/07/03 02:46:52;;;;;;;2.73;2.50;;;17.50;97.20;;;;;;5098770;28;20420;-46
2022/07/03 02:48:58;;;;;;;2.43;2.23;;;17.60;97.20;;;;;;5091983;28;20431;-43
2022/07/03 02:51:32;;;;;;;2.73;2.53;;;17.50;97.10;;;;;;5098252;28;20913;-47
2022/07/03 02:54:02;;;;;;;3.23;3.00;;;17.60;97.10;;;;;;5098019;28;20526;-46
2022/07/03 02:56:52;;;;;;;2.70;2.50;;;17.50;97.10;;;;;;5098168;28;20413;-43
2022/07/03 02:59:27;;;;;;;2.53;2.33;;;17.60;97.10;;;;;;5099056;28;20407;-45
2022/07/03 03:02:18;;;;;;;3.10;2.80;;;17.50;97.00;;;;;;5099141;28;20421;-45
2022/07/03 03:04:58;;;;;;;3.50;3.20;;;17.50;97.20;;;;;;5098429;28;20430;-45
2022/07/03 03:07:34;;;;;;;2.80;2.57;;;17.50;97.20;;;;;;5098214;28;20424;-43
2022/07/03 03:10:00;;;;;;;2.67;2.47;;;17.50;97.20;;;;;;5098611;28;20415;-45
2022/07/03 03:12:47;;;;;;;2.43;2.23;;;17.50;97.20;;;;;;5098808;28;20433;-43
2022/07/03 03:15:13;;;;;;;3.10;2.50;;;17.50;97.30;;;;;;5098510;28;20448;-45
2022/07/03 03:17:44;;;;;;;6.03;3.77;;;17.50;97.30;;;;;;5097666;28;20470;-44
2022/07/03 03:20:16;;;;;;;3.10;2.80;;;17.50;97.30;;;;;;5098064;28;20818;-46
2022/07/03 03:22:52;;;;;;;2.93;2.30;;;17.50;97.40;;;;;;5098920;28;20415;-44
2022/07/03 03:25:18;;;;;;;3.03;2.73;;;17.50;97.40;;;;;;5097474;28;20943;-45
2022/07/03 03:27:44;;;;;;;3.20;2.90;;;17.50;97.40;;;;;;5096481;28;20434;-44
2022/07/03 03:30:10;;;;;;;2.70;2.50;;;17.50;97.40;;;;;;5096928;28;20181;-45
2022/07/03 03:32:36;;;;;;;3.33;2.90;;;17.50;97.40;;;;;;5098308;28;20229;-44
2022/07/03 03:35:02;;;;;;;2.90;2.70;;;17.40;97.30;;;;;;5098186;28;20515;-44
2022/07/03 03:37:28;;;;;;;3.00;2.70;;;17.40;97.40;;;;;;5079751;28;20213;-43
2022/07/03 03:39:53;;;;;;;3.23;2.93;;;17.40;97.40;;;;;;5097951;28;20473;-45
2022/07/03 03:42:19;;;;;;;2.87;2.67;;;17.40;97.50;;;;;;5098016;28;20590;-46
2022/07/03 03:44:45;;;;;;;3.73;2.90;;;17.40;97.40;;;;;;5097982;28;20181;-46
2022/07/03 03:47:10;;;;;;;3.00;2.80;;;17.40;97.40;;;;;;5097851;28;20185;-43
2022/07/03 03:49:36;;;;;;;2.80;2.60;;;17.40;97.50;;;;;;5098116;28;20186;-44
2022/07/03 03:52:03;;;;;;;3.10;2.80;;;17.40;97.50;;;;;;5096180;28;20210;-45
2022/07/03 03:54:28;;;;;;;2.60;2.40;;;17.50;97.40;;;;;;5098796;28;20184;-43
2022/07/03 03:56:54;;;;;;;2.80;2.60;;;17.50;97.40;;;;;;5099076;28;20446;-43
2022/07/03 03:59:20;;;;;;;3.37;2.83;;;17.50;97.30;;;;;;5098836;28;20255;-44
2022/07/03 04:01:47;;;;;;;2.93;2.70;;;17.50;97.30;;;;;;5097073;28;20208;-43
2022/07/03 04:04:17;;;;;;;2.70;2.50;;;17.50;97.40;;;;;;5095276;28;20427;-43
2022/07/03 04:06:43;;;;;;;2.70;2.50;;;17.50;97.40;;;;;;5096459;28;20433;-43
2022/07/03 04:09:09;;;;;;;2.67;2.47;;;17.50;97.50;;;;;;5097136;28;20424;-45
2022/07/03 04:11:35;;;;;;;2.70;2.50;;;17.50;97.60;;;;;;5096949;28;20466;-44
2022/07/03 04:14:01;;;;;;;2.60;2.40;;;17.50;97.50;;;;;;5095609;28;20602;-45
2022/07/03 04:16:28;;;;;;;2.77;2.57;;;17.50;97.40;;;;;;5097032;28;20177;-44
2022/07/03 04:18:53;;;;;;;3.43;3.10;;;17.60;97.40;;;;;;5096699;28;20502;-44
2022/07/03 04:21:19;;;;;;;2.77;2.57;;;17.60;97.30;;;;;;5095642;28;20505;-45
2022/07/03 04:23:44;;;;;;;2.83;2.63;;;17.70;97.30;;;;;;5096692;28;20177;-43
2022/07/03 04:26:10;;;;;;;2.67;2.47;;;17.70;97.20;;;;;;5096567;28;20279;-44
2022/07/03 04:28:36;;;;;;;3.17;2.60;;;17.70;97.20;;;;;;5096226;28;20221;-45
2022/07/03 04:31:02;;;;;;;3.23;2.93;;;17.80;97.20;;;;;;5094930;28;20236;-44
2022/07/03 04:33:28;;;;;;;2.67;2.47;;;17.80;97.20;;;;;;5095495;28;20192;-44
2022/07/03 04:35:53;;;;;;;2.63;2.43;;;17.90;97.10;;;;;;5095148;28;20168;-42
2022/07/03 04:38:19;;;;;;;3.23;2.43;;;18.00;96.90;;;;;;5093681;28;20499;-45
2022/07/03 04:40:46;;;;;;;2.63;2.43;;;18.10;96.80;;;;;;5095027;28;20200;-44
2022/07/03 04:43:11;;;;;;;2.90;2.70;;;18.20;96.70;;;;;;5095321;28;20177;-44
2022/07/03 04:45:38;;;;;;;3.80;2.40;;;18.20;96.60;;;;;;5096419;28;20859;-43
2022/07/03 04:48:04;;;;;;;3.57;2.93;;;18.30;96.50;;;;;;5099945;28;20180;-43
2022/07/03 04:50:30;;;;;;;2.77;2.57;;;18.30;96.40;;;;;;5100339;28;20477;-43
2022/07/03 04:52:55;;;;;;;2.90;2.67;;;18.40;96.30;;;;;;5100667;28;20871;-44
2022/07/03 04:55:21;;;;;;;3.33;2.57;;;18.50;96.40;;;;;;5101091;28;20184;-45
2022/07/03 04:57:47;;;;;;;2.90;2.67;;;18.50;96.10;;;;;;5100802;28;20173;-46
2022/07/03 05:00:13;;;;;;;2.97;2.67;;;18.60;96.00;;;;;;5100459;28;20269;-44
2022/07/03 05:02:38;;;;;;;2.60;2.40;;;18.70;95.80;;;;;;5100727;28;20192;-44
2022/07/03 05:05:05;;;;;;;2.77;2.57;;;18.70;95.70;;;;;;5100822;28;20399;-45
2022/07/03 05:07:30;;;;;;;3.20;2.57;;;18.80;95.70;;;;;;5099512;28;20219;-45
2022/07/03 05:09:58;;;;;;;2.73;2.53;;;18.80;95.60;;;;;;5100301;28;20731;-43
2022/07/03 05:12:23;;;;;;;3.33;3.03;;;18.90;95.40;;;;;;5099913;28;20208;-46
2022/07/03 05:14:49;;;;;;;3.60;3.13;;;19.00;95.40;;;;;;5099883;28;20961;-43
2022/07/03 05:17:17;;;;;;;3.00;2.70;;;19.00;95.20;;;;;;5099461;28;20181;-44
2022/07/03 05:19:43;;;;;;;2.60;2.40;;;19.10;95.20;;;;;;5100682;28;20167;-43
2022/07/03 05:22:09;;;;;;;3.37;3.07;;;19.10;95.10;;;;;;5099149;28;20434;-43
2022/07/03 05:24:36;;;;;;;3.13;2.90;;;19.10;95.00;;;;;;5100535;28;20469;-45
2022/07/03 05:27:01;;;;;;;3.30;3.00;;;19.20;95.10;;;;;;5082879;28;20435;-46
2022/07/03 05:29:27;;;;;;;2.70;2.50;;;19.20;94.90;;;;;;5100790;28;20423;-42
2022/07/03 05:31:53;;;;;;;3.20;2.90;;;19.20;95.00;;;;;;5100360;28;20925;-43
2022/07/03 05:34:19;;;;;;;3.50;2.23;;;19.30;95.00;;;;;;5100088;28;20492;-44
2022/07/03 05:36:44;;;;;;;3.40;3.10;;;19.30;95.10;;;;;;5099026;28;20253;-47
2022/07/03 05:41:54;;;;;;;3.60;2.87;;;19.50;95.00;;;;;;5078600;28;20190;-45
2022/07/03 05:44:20;;;;;;;2.80;2.60;;;19.50;94.90;;;;;;5079011;28;20421;-45
2022/07/03 05:46:45;;;;;;;3.53;3.23;;;19.60;94.80;;;;;;5078969;28;20189;-45
2022/07/03 05:49:11;;;;;;;3.07;2.77;;;19.70;94.60;;;;;;5079616;28;20175;-44
2022/07/03 05:51:37;;;;;;;2.87;2.60;;;19.80;94.40;;;;;;5079397;28;20265;-43
2022/07/03 05:54:03;;;;;;;2.57;2.37;;;19.90;94.30;;;;;;5079469;28;20214;-47
2022/07/03 05:56:28;;;;;;;2.97;2.73;;;20.00;93.90;;;;;;5079656;28;20168;-44
2022/07/03 05:58:54;;;;;;;3.70;2.50;;;20.10;93.60;;;;;;5078367;28;20182;-42
2022/07/03 06:01:20;;;;;;;3.10;2.90;;;20.20;93.60;;;;;;5079204;28;20180;-46
2022/07/03 06:03:46;;;;;;;2.80;2.50;;;20.20;93.40;;;;;;5079447;28;20838;-44
2022/07/03 06:06:11;;;;;;;2.63;2.30;;;20.30;93.20;;;;;;5079912;28;20173;-44
2022/07/03 06:08:37;;;;;;;2.40;2.13;;;20.50;92.80;;;;;;5080130;28;20213;-45
2022/07/03 06:11:03;;;;;;;2.73;2.53;;;20.60;92.70;;;;;;5078836;28;20619;-44
2022/07/03 06:13:28;;;;;;;2.43;2.20;;;20.70;92.60;;;;;;5079194;28;20475;-44
2022/07/03 06:15:54;;;;;;;2.47;2.27;;;20.80;92.60;;;;;;5079506;28;20169;-45
2022/07/03 06:18:20;;;;;;;4.10;2.60;;;20.90;92.60;;;;;;5079180;28;20176;-45
2022/07/03 06:20:45;;;;;;;3.20;2.40;;;21.00;92.30;;;;;;5079833;28;20178;-45
2022/07/03 06:23:11;;;;;;;3.50;2.30;;;21.20;91.90;;;;;;5077479;28;20185;-45
2022/07/03 06:25:37;;;;;;;2.50;2.30;;;21.30;91.90;;;;;;5077089;28;20600;-46
2022/07/03 06:28:02;;;;;;;2.20;2.00;;;21.30;91.20;;;;;;5077277;28;20268;-46
2022/07/03 06:30:28;;;;;;;2.23;2.03;;;21.50;91.10;;;;;;5077765;28;20212;-44
2022/07/03 06:32:54;;;;;;;2.13;1.93;;;21.50;91.00;;;;;;5077856;28;20371;-44
2022/07/03 06:35:19;;;;;;;2.20;2.00;;;21.60;91.10;;;;;;5077583;28;20202;-46
2022/07/03 06:37:45;;;;;;;2.40;2.20;;;21.70;90.70;;;;;;5077505;28;20582;-46
2022/07/03 06:40:11;;;;;;;2.93;2.73;;;21.90;90.20;;;;;;5077724;28;20562;-46
2022/07/03 06:42:36;;;;;;;2.60;2.40;;;21.90;90.30;;;;;;5075329;28;20186;-46
2022/07/03 06:45:03;;;;;;;2.50;2.30;;;22.10;90.40;;;;;;5075945;28;20181;-46
2022/07/03 06:47:28;;;;;;;2.90;2.20;;;22.20;90.10;;;;;;5075471;28;20216;-44
2022/07/03 06:49:54;;;;;;;2.23;2.07;;;22.30;89.50;;;;;;5075202;28;20995;-47
2022/07/03 06:52:23;;;;;;;2.47;1.80;;;22.50;89.60;;;;;;5075543;28;20567;-47
2022/07/03 06:54:49;;;;;;;4.13;2.60;;;22.60;89.10;;;;;;5076776;28;20230;-44
2022/07/03 06:57:15;;;;;;;2.30;2.10;;;22.70;88.30;;;;;;5076703;28;20462;-45
2022/07/03 06:59:41;;;;;;;4.33;2.50;;;22.80;87.30;;;;;;5076467;28;20175;-43
2022/07/03 07:02:07;;;;;;;2.43;2.23;;;23.00;87.00;;;;;;5076874;28;20436;-42
2022/07/03 07:04:33;;;;;;;2.57;2.10;;;23.20;87.20;;;;;;5077351;28;20451;-43
2022/07/03 07:07:00;;;;;;;3.53;1.97;;;23.50;86.20;;;;;;5077678;28;20466;-44
2022/07/03 07:09:25;;;;;;;2.23;2.03;;;23.70;85.90;;;;;;5077660;28;20537;-43
2022/07/03 07:11:51;;;;;;;2.07;1.97;;;23.80;85.70;;;;;;5077737;28;20576;-45
2022/07/03 07:14:17;;;;;;;1.50;1.40;;;23.90;82.90;;;;;;5078186;28;20263;-44
2022/07/03 07:16:43;;;;;;;1.97;1.70;;;23.90;80.90;;;;;;5078523;28;20210;-46
2022/07/03 07:19:08;;;;;;;2.70;2.40;;;23.90;80.20;;;;;;5077420;28;20215;-43
2022/07/03 07:21:34;;;;;;;2.63;1.80;;;23.90;79.00;;;;;;5074653;28;20409;-44
2022/07/03 07:24:00;;;;;;;1.97;1.50;;;23.70;77.40;;;;;;5078029;28;20182;-43
2022/07/03 07:26:26;;;;;;;1.93;1.73;;;23.80;78.70;;;;;;5077384;28;20180;-45
2022/07/03 07:28:51;;;;;;;2.60;1.57;;;24.00;78.30;;;;;;5077443;28;20569;-45
2022/07/03 07:31:17;;;;;;;2.10;1.90;;;24.20;77.10;;;;;;5077348;28;20215;-44
2022/07/03 07:33:43;;;;;;;2.10;1.83;;;24.40;81.10;;;;;;5076147;28;20574;-43
2022/07/03 07:36:08;;;;;;;4.20;1.73;;;24.50;75.00;;;;;;5075048;28;20218;-46
2022/07/03 07:38:34;;;;;;;1.50;1.40;;;24.60;76.30;;;;;;5072801;28;20180;-46
2022/07/03 07:41:00;;;;;;;2.10;1.40;;;24.70;75.30;;;;;;5074250;28;20214;-44
2022/07/03 07:43:25;;;;;;;2.60;1.80;;;24.90;74.20;;;;;;5074805;28;20208;-45
2022/07/03 07:45:52;;;;;;;1.90;1.80;;;24.90;73.90;;;;;;5075472;28;20612;-46
2022/07/03 07:48:18;;;;;;;1.63;1.50;;;24.90;73.10;;;;;;5075202;28;20185;-45
2022/07/03 07:50:44;;;;;;;2.07;1.60;;;25.00;72.90;;;;;;5075002;28;20958;-43
2022/07/03 07:53:10;;;;;;;1.60;1.50;;;24.80;70.70;;;;;;5074960;28;20549;-45
2022/07/03 07:55:35;;;;;;;2.20;1.73;;;24.70;70.60;;;;;;5076303;28;20176;-44
2022/07/03 07:58:01;;;;;;;2.07;1.57;;;24.70;70.90;;;;;;5058108;28;20173;-45
2022/07/03 08:00:27;;;;;;;2.23;1.70;;;24.80;70.90;;;;;;5077608;28;20171;-46
2022/07/03 08:05:37;;;;;;;3.00;1.67;;;25.10;70.00;;;;;;5076312;28;20416;-45
2022/07/03 08:08:09;;;;;;;1.87;1.77;;;25.20;69.30;;;;;;5076033;28;20421;-43
2022/07/03 08:10:43;;;;;;;1.87;1.43;;;25.20;67.90;;;;;;5075981;28;20495;-46
2022/07/03 08:13:09;;;;;;;2.77;1.57;;;25.30;67.40;;;;;;5075164;28;20568;-46
2022/07/03 08:15:35;;;;;;;1.90;1.80;;;25.30;67.30;;;;;;5075232;28;20649;-43
2022/07/03 08:18:01;;;;;;;2.00;1.80;;;25.40;67.10;;;;;;5074693;28;20432;-44
2022/07/03 08:20:28;;;;;;;2.50;1.63;;;25.40;65.80;;;;;;5072877;28;20184;-46
2022/07/03 08:22:53;;;;;;;2.57;1.90;;;25.50;66.40;;;;;;5054646;28;20717;-45
2022/07/03 08:25:19;;;;;;;3.10;1.87;;;25.60;66.10;;;;;;5074232;28;20419;-46
2022/07/03 08:27:45;;;;;;;3.93;2.10;;;25.60;66.40;;;;;;5074226;28;20178;-44
2022/07/03 08:30:14;;;;;;;2.00;1.50;;;25.90;65.70;;;;;;5074424;28;20558;-44
2022/07/03 08:32:40;;;;;;;2.03;1.80;;;26.10;63.90;;;;;;5073641;28;20481;-45
2022/07/03 08:35:06;;;;;;;1.80;1.70;;;26.40;63.80;;;;;;5075004;28;20419;-44
2022/07/03 08:37:32;;;;;;;2.70;1.70;;;26.60;64.40;;;;;;5075066;28;20589;-44
2022/07/03 08:39:57;;;;;;;1.70;1.40;;;26.60;59.70;;;;;;5074509;28;20772;-45
2022/07/03 08:42:23;;;;;;;1.87;1.70;;;26.60;58.70;;;;;;5074852;28;20179;-46
2022/07/03 08:44:50;;;;;;;2.63;1.77;;;26.50;59.30;;;;;;5075916;28;20187;-43
2022/07/03 08:47:16;;;;;;;4.03;1.73;;;26.60;59.40;;;;;;5056502;28;20285;-43
2022/07/03 08:49:42;;;;;;;2.10;1.80;;;26.60;60.30;;;;;;5073638;28;20435;-44
2022/07/03 08:52:09;;;;;;;1.50;1.40;;;26.70;60.00;;;;;;5072604;28;20904;-44
2022/07/03 08:54:35;;;;;;;1.80;1.47;;;27.10;60.30;;;;;;5073269;28;20415;-44
2022/07/03 08:57:02;;;;;;;1.70;1.60;;;27.30;58.50;;;;;;5072662;28;20454;-46
2022/07/03 08:59:38;;;;;;;1.50;1.40;;;27.40;57.90;;;;;;5073229;28;20256;-44
2022/07/03 09:02:04;;;;;;;1.90;1.67;;;27.60;57.40;;;;;;5073321;28;20446;-46
2022/07/03 09:04:31;;;;;;;4.77;1.67;;;27.90;57.60;;;;;;5073030;28;20477;-45
2022/07/03 09:06:58;;;;;;;1.60;1.40;;;27.80;56.90;;;;;;5073897;28;20460;-44
2022/07/03 09:09:24;;;;;;;7.50;1.77;;;27.90;56.20;;;;;;5074101;28;20773;-44
2022/07/03 09:11:51;;;;;;;1.57;1.00;;;27.90;54.10;;;;;;5075147;28;20570;-48
2022/07/03 09:14:17;;;;;;;2.40;1.40;;;27.90;51.60;;;;;;5076000;28;20166;-45
2022/07/03 09:16:42;;;;;;;1.80;1.70;;;28.10;52.30;;;;;;5075043;28;20883;-46
2022/07/03 09:19:09;;;;;;;1.40;1.00;;;28.40;51.30;;;;;;5075022;28;20431;-46
2022/07/03 09:21:39;;;;;;;1.67;1.30;;;28.60;49.70;;;;;;5075171;28;20172;-46
2022/07/03 09:24:07;;;;;;;1.50;1.40;;;28.80;49.60;;;;;;5074995;28;20407;-45
2022/07/03 09:26:33;;;;;;;1.37;1.27;;;28.80;50.20;;;;;;5073913;28;20440;-46
2022/07/03 09:28:59;;;;;;;2.43;1.30;;;29.00;49.20;;;;;;5075601;28;20418;-45
2022/07/03 09:31:27;;;;;;;1.80;1.53;;;29.30;48.80;;;;;;5075059;28;20570;-46
2022/07/03 09:34:04;;;;;;;1.83;1.53;;;29.10;49.20;;;;;;5077204;28;20176;-48
2022/07/03 09:36:40;;;;;;;2.23;1.60;;;29.00;48.80;;;;;;5077119;28;20432;-47
2022/07/03 09:39:25;;;;;;;2.73;1.50;;;29.00;48.10;;;;;;5076947;28;20418;-45
2022/07/03 09:41:59;;;;;;;1.57;1.33;;;29.10;48.50;;;;;;5077626;28;20733;-46
2022/07/03 09:44:47;;;;;;;2.37;1.40;;;29.30;48.20;;;;;;5079577;28;20415;-47
2022/07/03 09:47:23;;;;;;;2.60;1.53;;;29.30;48.40;;;;;;5077606;28;20481;-44
2022/07/03 09:49:57;;;;;;;3.60;1.33;;;28.90;48.90;;;;;;5078049;28;20419;-49
2022/07/03 09:52:31;;;;;;;2.40;1.40;;;29.20;49.50;;;;;;5078144;28;20478;-45
2022/07/03 09:55:09;;;;;;;1.60;1.50;;;29.40;48.80;;;;;;5078227;28;20407;-45
2022/07/03 09:57:35;;;;;;;1.57;1.30;;;29.50;48.80;;;;;;5077683;28;20394;-44
2022/07/03 10:00:21;;;;;;;6.10;1.97;;;29.70;48.80;;;;;;5078587;28;20418;-48
2022/07/03 10:03:01;;;;;;;2.40;1.40;;;30.00;48.70;;;;;;5076841;28;20906;-46
2022/07/03 10:05:38;;;;;;;2.33;1.50;;;30.10;47.30;;;;;;5075329;28;20410;-46
2022/07/03 10:08:16;;;;;;;1.73;1.43;;;29.60;46.50;;;;;;5076248;28;20420;-46
2022/07/03 10:10:44;;;;;;;1.47;1.30;;;29.70;46.50;;;;;;5076252;28;20448;-47
2022/07/03 10:13:10;;;;;;;1.53;1.40;;;29.60;46.60;;;;;;5074962;28;20440;-49
2022/07/03 10:15:38;;;;;;;2.13;1.20;;;30.00;46.60;;;;;;5075235;28;20449;-45
2022/07/03 10:18:08;;;;;;;1.40;1.23;;;30.40;46.50;;;;;;5075207;28;20420;-45
2022/07/03 10:20:36;;;;;;;2.13;1.30;;;30.90;46.30;;;;;;5076516;28;20427;-46
2022/07/03 10:23:03;;;;;;;1.70;1.30;;;31.40;45.70;;;;;;5075950;28;20447;-45
2022/07/03 10:25:29;;;;;;;1.50;1.30;;;32.20;45.40;;;;;;5075685;28;20516;-47
2022/07/03 10:27:56;;;;;;;1.83;1.63;;;32.80;45.00;;;;;;5076611;28;20408;-47
2022/07/03 10:30:23;;;;;;;1.67;1.37;;;33.30;42.40;;;;;;5074256;28;20483;-47
2022/07/03 10:32:50;;;;;;;2.00;1.80;;;33.40;42.00;;;;;;5074758;28;20577;-46
2022/07/03 10:35:20;;;;;;;1.80;1.50;;;33.10;41.40;;;;;;5074803;28;20890;-46
2022/07/03 10:38:09;;;;;;;2.70;2.50;;;32.60;43.00;;;;;;5075813;28;20428;-46
2022/07/03 10:46:50;;;;;;;1.30;1.13;;;32.10;41.30;;;;;;5078134;28;20971;-46
2022/07/03 10:49:16;;;;;;;1.87;1.60;;;32.10;41.30;;;;;;5078502;28;20481;-46
2022/07/03 10:51:45;;;;;;;1.47;1.37;;;32.00;40.70;;;;;;5075788;28;20211;-46
2022/07/03 10:54:20;;;;;;;1.63;1.30;;;32.40;40.70;;;;;;5076773;28;20176;-48
2022/07/03 10:56:58;;;;;;;2.70;1.80;;;32.50;40.90;;;;;;5076386;28;20416;-45
2022/07/03 10:59:36;;;;;;;4.60;1.40;;;32.40;41.40;;;;;;5076594;28;20377;-45
2022/07/03 11:02:26;;;;;;;1.47;1.23;;;32.20;40.80;;;;;;5091207;28;20444;-46
2022/07/03 11:05:01;;;;;;;2.67;1.07;;;32.10;40.80;;;;;;5075516;28;20375;-44
2022/07/03 11:07:34;;;;;;;1.30;1.20;;;31.90;40.00;;;;;;5074332;28;20767;-47
2022/07/03 11:10:14;;;;;;;1.50;1.40;;;32.10;40.30;;;;;;5073813;28;20372;-47
2022/07/03 11:12:58;;;;;;;3.10;1.17;;;32.50;39.70;;;;;;5074172;28;20521;-48
2022/07/03 11:15:32;;;;;;;1.87;1.37;;;32.90;39.60;;;;;;5075941;28;20731;-48
2022/07/03 11:18:10;;;;;;;1.73;1.27;;;33.60;39.70;;;;;;5075609;28;20429;-49
2022/07/03 11:20:42;;;;;;;1.33;1.23;;;34.40;39.50;;;;;;5076589;28;20805;-48
2022/07/03 11:23:26;;;;;;;1.53;1.40;;;34.60;36.90;;;;;;5092311;28;20430;-47
2022/07/03 11:25:59;;;;;;;2.03;1.27;;;34.50;36.90;;;;;;5077015;28;20820;-47
2022/07/03 11:28:34;;;;;;;2.00;1.53;;;33.80;37.60;;;;;;5075822;28;20432;-47
2022/07/03 11:33:48;;;;;;;2.23;1.40;;;33.60;37.20;;;;;;5076457;28;20475;-48
2022/07/03 11:36:16;;;;;;;1.50;1.13;;;33.60;38.00;;;;;;5077462;28;20686;-45
2022/07/03 11:38:46;;;;;;;2.43;1.33;;;33.60;38.40;;;;;;5077930;28;20732;-45
2022/07/03 11:41:14;;;;;;;1.97;1.30;;;34.00;38.40;;;;;;5077705;28;20403;-46
2022/07/03 11:43:53;;;;;;;1.57;1.20;;;34.00;37.80;;;;;;5076425;28;20427;-48
2022/07/03 11:46:21;;;;;;;1.60;1.47;;;33.60;39.00;;;;;;5074600;28;20469;-46
2022/07/03 11:48:48;;;;;;;1.73;1.47;;;33.50;38.20;;;;;;5076330;28;20400;-47
2022/07/03 11:51:14;;;;;;;1.93;1.17;;;33.40;38.40;;;;;;5076541;28;20463;-47
2022/07/03 11:53:40;;;;;;;2.50;1.67;;;32.90;38.40;;;;;;5075138;28;20743;-47
2022/07/03 11:56:08;;;;;;;1.83;1.20;;;32.60;38.70;;;;;;5084160;28;20400;-46
2022/07/03 11:58:54;;;;;;;1.93;1.40;;;32.80;39.10;;;;;;5095875;28;20438;-47
2022/07/03 12:01:25;;;;;;;1.93;1.40;;;32.70;38.90;;;;;;5095557;28;20677;-44
2022/07/03 12:04:07;;;;;;;1.80;1.13;;;32.90;38.20;;;;;;5093465;28;20441;-44
2022/07/03 12:06:43;;;;;;;2.30;1.20;;;33.30;37.60;;;;;;5093723;28;20397;-46
2022/07/03 12:09:22;;;;;;;1.50;1.30;;;33.30;37.40;;;;;;5093905;28;20759;-44
2022/07/03 12:11:54;;;;;;;3.63;1.20;;;33.00;36.90;;;;;;5094886;28;20718;-44
2022/07/03 12:14:46;;;;;;;1.50;1.40;;;32.70;37.20;;;;;;5093718;28;20872;-46
2022/07/03 12:17:16;;;;;;;1.63;1.23;;;32.80;37.70;;;;;;5094063;28;20409;-46
2022/07/03 12:19:49;;;;;;;1.97;1.40;;;32.70;37.00;;;;;;5094835;28;20720;-46
2022/07/03 12:22:26;;;;;;;1.60;1.30;;;33.10;37.60;;;;;;5092860;28;20504;-46
2022/07/03 12:25:06;;;;;;;1.60;1.13;;;33.30;37.30;;;;;;5094743;28;20423;-46
2022/07/03 12:27:44;;;;;;;1.60;1.30;;;33.00;36.70;;;;;;5096805;28;20434;-46
2022/07/03 12:30:19;;;;;;;3.50;1.40;;;33.40;36.70;;;;;;5095292;28;20563;-47
2022/07/03 12:32:46;;;;;;;1.90;1.30;;;33.60;36.70;;;;;;5093418;28;20440;-44
2022/07/03 12:35:20;;;;;;;1.40;1.23;;;33.70;36.30;;;;;;5094039;28;20412;-45
2022/07/03 12:37:47;;;;;;;2.30;1.20;;;33.40;36.40;;;;;;5092041;28;20738;-45
2022/07/03 12:40:14;;;;;;;1.80;1.37;;;33.70;36.90;;;;;;5092020;28;21029;-47
2022/07/03 12:42:50;;;;;;;1.50;1.20;;;34.20;35.20;;;;;;5092805;28;20475;-46
2022/07/03 12:45:19;;;;;;;1.47;1.30;;;34.50;35.90;;;;;;5094901;28;20410;-46
2022/07/03 12:47:46;;;;;;;2.40;1.10;;;34.70;35.00;;;;;;5094520;28;20538;-46
2022/07/03 12:50:12;;;;;;;2.13;1.00;;;34.80;34.20;;;;;;5094583;28;20433;-47
2022/07/03 12:52:55;;;;;;;1.60;1.40;;;35.30;35.20;;;;;;5093174;28;21050;-45
2022/07/03 12:55:28;;;;;;;1.20;1.00;;;35.20;33.80;;;;;;5093675;28;20430;-44
2022/07/03 13:01:00;;;;;;;1.67;1.20;;;34.10;35.40;;;;;;5094573;28;20809;-46
2022/07/03 13:03:28;;;;;;;1.40;1.30;;;33.90;35.10;;;;;;5093054;28;20902;-48
2022/07/03 13:05:53;;;;;;;2.33;1.20;;;34.20;35.90;;;;;;5095351;28;20426;-48
2022/07/03 13:08:19;;;;;;;2.90;2.37;;;34.70;35.00;;;;;;5096500;28;20485;-47
2022/07/03 13:10:57;;;;;;;1.50;1.40;;;34.70;34.70;;;;;;5098785;28;20207;-46
2022/07/03 13:13:23;;;;;;;2.80;1.50;;;34.50;35.20;;;;;;5081827;28;20665;-47
2022/07/03 13:15:49;;;;;;;2.00;1.30;;;34.20;35.10;;;;;;5077093;28;20450;-47
2022/07/03 13:18:14;;;;;;;2.27;1.67;;;33.90;35.00;;;;;;5078338;28;20443;-45